createdAt,value
2022-11-01T04:56:16.343Z,52.8
2022-11-01T05:01:22.428Z,52.8
2022-11-01T05:06:45.418Z,52.7
2022-11-01T05:12:08.195Z,52.7
2022-11-01T05:18:06.196Z,52.6
2022-11-01T05:23:28.618Z,52.6
2022-11-01T05:28:51.545Z,52.6
2022-11-01T05:34:37.991Z,52.5
2022-11-01T05:40:19.321Z,52.4
2022-11-01T05:51:25.323Z,52.3
2022-11-01T05:57:02.702Z,52.3
2022-11-01T06:02:45.525Z,52.3
2022-11-01T06:08:26.762Z,52.2
2022-11-01T06:14:05.131Z,52.2
2022-11-01T06:19:43.426Z,52.1
2022-11-01T06:25:11.485Z,52.1
2022-11-01T06:30:37.101Z,52.1
2022-11-01T06:36:06.444Z,52
2022-11-01T06:41:42.581Z,52
2022-11-01T06:57:33.862Z,51.8
2022-11-01T07:03:19.746Z,51.8
2022-11-01T07:08:44.794Z,51.8
2022-11-01T07:14:06.855Z,51.7
2022-11-01T07:19:29.067Z,51.7
2022-11-01T07:24:36.061Z,51.6
2022-11-01T07:29:58.478Z,51.6
2022-11-01T07:35:21.284Z,51.6
2022-11-01T07:40:31.680Z,51.5
2022-11-01T07:45:52.985Z,51.5
2022-11-01T07:51:15.688Z,51.5
2022-11-01T07:56:53.281Z,51.4
2022-11-01T08:02:35.413Z,51.4
2022-11-01T08:07:58.509Z,51.4
2022-11-01T08:13:36.476Z,51.4
2022-11-01T08:19:16.338Z,51.3
2022-11-01T08:24:39.640Z,51.3
2022-11-01T08:33:13.473Z,51.2
2022-11-01T08:38:57.267Z,51.1
2022-11-01T08:44:19.617Z,51.1
2022-11-01T08:49:56.958Z,51.1
2022-11-01T08:55:37.787Z,51.1
2022-11-01T09:01:15.679Z,51
2022-11-01T09:06:54.273Z,51
2022-11-01T09:12:36.148Z,51.3
2022-11-01T09:18:16.015Z,51.6
2022-11-01T09:23:53.836Z,52
2022-11-01T09:35:00.799Z,52.8
2022-11-01T09:40:45.419Z,53.1
2022-11-01T09:46:25.181Z,53.5
2022-11-01T09:52:07.435Z,53.9
2022-11-01T09:57:45.498Z,54.3
2022-11-01T10:03:11.822Z,54.7
2022-11-01T10:08:50.953Z,55
2022-11-01T10:14:03.579Z,55.4
2022-11-01T10:19:14.849Z,55.7
2022-11-01T10:24:39.056Z,56
2022-11-01T10:30:00.674Z,56.3
2022-11-01T10:35:26.511Z,56.7
2022-11-01T10:42:15.936Z,57.1
2022-11-01T10:47:43.681Z,57.3
2022-11-01T10:53:51.934Z,57.7
2022-11-01T10:58:59.144Z,57.9
2022-11-01T11:04:38.835Z,58.2
2022-11-01T11:09:47.113Z,58.4
2022-11-01T11:15:13.807Z,58.6
2022-11-01T11:20:41.234Z,58.9
2022-11-01T11:26:19.122Z,59.1
2022-11-01T11:31:29.581Z,59.3
2022-11-01T11:36:51.752Z,59.5
2022-11-01T11:41:43.497Z,59.6
2022-11-01T11:47:24.097Z,59.8
2022-11-01T11:52:49.437Z,59.9
2022-11-01T11:58:27.417Z,60.1
2022-11-01T12:03:56.377Z,60.2
2022-11-01T12:09:22.784Z,60.3
2022-11-01T12:14:44.841Z,60.2
2022-11-01T12:20:12.647Z,60.2
2022-11-01T12:25:35.015Z,60.2
2022-11-01T12:31:00.597Z,60.2
2022-11-01T12:36:23.905Z,60.2
2022-11-01T12:41:49.587Z,60.1
2022-11-01T12:47:11.602Z,60.1
2022-11-01T12:52:33.990Z,60.1
2022-11-01T12:57:56.384Z,60
2022-11-01T13:03:08.560Z,60
2022-11-01T13:08:46.515Z,59.9
2022-11-01T13:14:08.868Z,59.9
2022-11-01T13:19:46.407Z,59.9
2022-11-01T13:25:24.109Z,59.8
2022-11-01T13:30:46.320Z,59.8
2022-11-01T13:36:27.262Z,59.8
2022-11-01T13:42:07.581Z,59.8
2022-11-01T13:47:29.097Z,59.7
2022-11-01T13:53:07.445Z,59.7
2022-11-01T13:58:34.870Z,59.6
2022-11-01T14:04:13.331Z,59.6
2022-11-01T14:09:56.244Z,59.6
2022-11-01T14:15:39.183Z,59.5
2022-11-01T14:21:00.790Z,59.4
2022-11-01T14:26:40.771Z,59.4
2022-11-01T14:32:22.719Z,59.4
2022-11-01T14:37:43.991Z,59.4
2022-11-01T14:43:22.286Z,59.3
2022-11-01T14:48:48.456Z,59.3
2022-11-01T14:54:13.361Z,59.2
2022-11-01T14:59:35.446Z,59.2
2022-11-01T15:04:59.195Z,59.1
2022-11-01T15:10:38.699Z,59.1
2022-11-01T15:16:16.916Z,59.1
2022-11-01T15:22:03.689Z,59.1
2022-11-01T15:27:41.354Z,59
2022-11-01T15:33:19.558Z,58.9
2022-11-01T15:38:57.476Z,58.9
2022-11-01T15:44:19.640Z,58.9
2022-11-01T15:49:57.018Z,58.8
2022-11-01T15:55:38.497Z,58.8
2022-11-01T16:01:16.370Z,58.8
2022-11-01T16:06:39.624Z,58.7
2022-11-01T16:12:16.682Z,58.7
2022-11-01T16:18:01.161Z,58.6
2022-11-01T16:28:46.281Z,58.5
2022-11-01T16:34:23.565Z,58.5
2022-11-01T16:40:02.281Z,58.4
2022-11-01T16:45:24.697Z,58.4
2022-11-01T16:51:05.521Z,58.3
2022-11-01T16:57:11.034Z,58.3
2022-11-01T17:02:55.860Z,58.3
2022-11-01T17:08:35.973Z,58.3
2022-11-01T17:14:03.462Z,58.2
2022-11-01T17:19:43.794Z,58.1
2022-11-01T17:25:21.659Z,58.1
2022-11-01T17:31:04.927Z,58.1
2022-11-01T17:36:32.580Z,58
2022-11-01T17:42:09.983Z,57.9
2022-11-01T17:47:32.155Z,57.9
2022-11-01T17:53:17.180Z,57.9
2022-11-01T17:58:58.283Z,57.8
2022-11-01T18:04:37.259Z,57.8
2022-11-01T18:15:27.337Z,57.7
2022-11-01T18:21:11.164Z,57.7
2022-11-01T18:26:53.648Z,57.6
2022-11-01T18:32:16.293Z,57.6
2022-11-01T18:37:54.276Z,57.6
2022-11-01T18:43:32.146Z,57.5
2022-11-01T18:49:31.556Z,57.5
2022-11-01T18:54:56.819Z,57.4
2022-11-01T19:00:35.669Z,57.4
2022-11-01T19:05:59.692Z,57.4
2022-11-01T19:12:09.366Z,57.3
2022-11-01T19:17:51.041Z,57.3
2022-11-01T19:23:31.340Z,57.3
2022-11-01T19:29:00.242Z,57.2
2022-11-01T19:34:27.107Z,57.1
2022-11-01T19:39:36.444Z,57.1
2022-11-01T19:45:16.834Z,57.1
2022-11-01T19:50:41.749Z,57
2022-11-01T19:56:23.808Z,57
2022-11-01T20:02:10.254Z,56.9
2022-11-01T20:07:51.705Z,56.9
2022-11-01T20:13:34.372Z,56.8
2022-11-01T20:19:14.772Z,56.8
2022-11-01T20:25:21.417Z,56.8
2022-11-01T20:30:58.664Z,56.7
2022-11-01T20:36:27.230Z,56.7
2022-11-01T20:42:37.259Z,56.6
2022-11-01T20:47:46.331Z,56.6
2022-11-01T20:53:32.163Z,56.5
2022-11-01T20:59:24.625Z,56.5
2022-11-01T21:04:47.412Z,56.4
2022-11-01T21:10:24.257Z,56.4
2022-11-01T21:16:01.336Z,56.3
2022-11-01T21:21:22.785Z,56.3
2022-11-01T21:26:55.955Z,56.3
2022-11-01T21:32:18.581Z,56.2
2022-11-01T21:37:55.865Z,56.1
2022-11-01T21:43:37.713Z,56.1
2022-11-01T21:49:14.720Z,56.1
2022-11-01T21:54:38.400Z,56
2022-11-01T21:59:45.602Z,56
2022-11-01T22:04:56.519Z,55.9
2022-11-01T22:10:34.292Z,55.9
2022-11-01T22:16:14.155Z,55.9
2022-11-01T22:21:35.767Z,55.8
2022-11-01T22:26:57.386Z,55.8
2022-11-01T22:32:34.501Z,55.8
2022-11-01T22:37:56.420Z,55.7
2022-11-01T22:43:19.006Z,55.6
2022-11-01T22:48:56.166Z,55.6
2022-11-01T22:54:03.074Z,55.6
2022-11-01T22:59:27.257Z,55.5
2022-11-01T23:04:56.591Z,55.5
2022-11-01T23:10:23.608Z,55.4
2022-11-01T23:16:00.584Z,55.4
2022-11-01T23:21:22.643Z,55.4
2022-11-01T23:27:00.127Z,55.3
2022-11-01T23:32:21.949Z,55.3
2022-11-01T23:37:44.308Z,55.3
2022-11-01T23:43:22.210Z,55.2
2022-11-01T23:48:44.438Z,55.1
2022-11-01T23:54:06.540Z,55.1
2022-11-01T23:59:28.460Z,55.1
